createdAt,value
2022-11-10T00:02:53.343Z,10.20
2022-11-10T00:08:16.377Z,10.40
2022-11-10T00:14:01.681Z,10.40
2022-11-10T00:19:22.974Z,10.50
2022-11-10T00:24:47.120Z,10.60
2022-11-10T00:30:09.731Z,10.80
2022-11-10T00:35:31.669Z,10.90
2022-11-10T00:40:54.653Z,11.20
2022-11-10T00:46:16.638Z,11.30
2022-11-10T00:51:38.811Z,11.50
2022-11-10T00:57:02.055Z,11.60
2022-11-10T01:02:23.796Z,11.70
2022-11-10T01:07:45.497Z,11.80
2022-11-10T01:13:09.209Z,11.80
2022-11-10T01:18:31.268Z,11.80
2022-11-10T01:23:53.168Z,11.70
2022-11-10T01:29:16.024Z,11.80
2022-11-10T01:34:37.573Z,12.00
2022-11-10T01:39:59.521Z,11.90
2022-11-10T01:45:43.306Z,11.90
2022-11-10T01:51:10.097Z,11.60
2022-11-10T01:56:39.703Z,11.80
2022-11-10T02:02:10.478Z,12.00
2022-11-10T02:07:32.530Z,11.80
2022-11-10T02:12:54.439Z,11.80
2022-11-10T02:18:17.218Z,11.70
2022-11-10T02:23:48.902Z,11.80
2022-11-10T02:29:10.562Z,11.90
2022-11-10T02:34:32.276Z,11.70
2022-11-10T02:39:56.091Z,11.70
2022-11-10T02:45:17.946Z,11.80
2022-11-10T02:50:40.281Z,11.70
2022-11-10T02:56:03.353Z,11.80
2022-11-10T03:01:24.958Z,11.90
2022-11-10T03:06:47.154Z,11.90
2022-11-10T03:12:10.948Z,11.80
2022-11-10T03:17:32.742Z,11.80
2022-11-10T03:23:00.673Z,11.70
2022-11-10T03:28:23.983Z,11.80
2022-11-10T03:33:45.663Z,11.70
2022-11-10T03:39:07.573Z,11.70
2022-11-10T03:44:30.435Z,11.70
2022-11-10T03:49:52.234Z,11.50
2022-11-10T03:55:15.947Z,11.50
2022-11-10T04:00:39.002Z,11.30
2022-11-10T04:06:19.537Z,11.10
2022-11-10T04:11:59.758Z,11.10
2022-11-10T04:17:23.151Z,11.00
2022-11-10T04:23:03.546Z,10.50
2022-11-10T04:28:25.456Z,10.40
2022-11-10T04:33:49.713Z,10.40
2022-11-10T04:39:12.049Z,10.30
2022-11-10T04:44:33.628Z,10.10
2022-11-10T04:49:56.670Z,9.90
2022-11-10T04:55:18.548Z,9.80
2022-11-10T05:00:41.870Z,9.40
2022-11-10T05:06:05.443Z,9.60
2022-11-10T05:11:27.946Z,9.30
2022-11-10T05:16:49.591Z,9.30
2022-11-10T05:22:12.851Z,9.20
2022-11-10T05:27:34.211Z,9.10
2022-11-10T05:32:55.908Z,9.00
2022-11-10T05:38:19.275Z,8.80
2022-11-10T05:43:40.910Z,8.70
2022-11-10T05:49:02.987Z,8.70
2022-11-10T05:54:25.943Z,8.40
2022-11-10T05:59:47.504Z,8.30
2022-11-10T06:05:10.396Z,8.10
2022-11-10T06:10:34.693Z,8.00
2022-11-10T06:15:56.363Z,7.90
2022-11-10T06:21:18.119Z,7.90
2022-11-10T06:26:41.078Z,7.80
2022-11-10T06:32:03.472Z,7.70
2022-11-10T06:37:25.191Z,7.70
2022-11-10T06:42:47.934Z,7.70
2022-11-10T06:48:13.190Z,7.70
2022-11-10T06:53:34.864Z,7.70
2022-11-10T06:58:57.958Z,7.80
2022-11-10T07:04:20.793Z,8.30
2022-11-10T07:09:43.548Z,8.80
2022-11-10T07:15:07.614Z,9.30
2022-11-10T07:20:29.458Z,9.70
2022-11-10T07:25:51.598Z,10.10
2022-11-10T07:31:14.690Z,10.20
2022-11-10T07:36:36.165Z,10.50
2022-11-10T07:41:58.089Z,10.60
2022-11-10T07:47:21.161Z,10.70
2022-11-10T07:52:43.227Z,10.70
2022-11-10T07:58:06.092Z,10.70
2022-11-10T08:03:29.286Z,10.90
2022-11-10T08:08:51.102Z,11.10
2022-11-10T08:14:12.979Z,11.10
2022-11-10T08:19:35.983Z,11.30
2022-11-10T08:24:57.675Z,11.40
2022-11-10T08:30:19.318Z,11.60
2022-11-10T08:35:44.655Z,12.00
2022-11-10T08:41:06.273Z,13.60
2022-11-10T08:46:27.855Z,15.20
2022-11-10T08:51:51.439Z,15.90
2022-11-10T08:57:12.952Z,16.40
2022-11-10T09:02:34.527Z,17.00
2022-11-10T09:07:57.806Z,17.00
2022-11-10T09:13:26.268Z,16.60
2022-11-10T09:18:51.151Z,16.00
2022-11-10T09:24:14.150Z,15.00
2022-11-10T09:29:35.786Z,14.80
2022-11-10T09:34:57.478Z,14.10
2022-11-10T09:40:25.565Z,13.70
2022-11-10T09:45:51.191Z,13.60
2022-11-10T09:51:17.124Z,13.50
2022-11-10T09:56:41.628Z,13.50
2022-11-10T10:02:05.666Z,13.70
2022-11-10T10:07:36.106Z,13.60
2022-11-10T10:13:17.593Z,13.70
2022-11-10T10:18:48.396Z,13.90
2022-11-10T10:24:19.866Z,13.90
2022-11-10T10:29:47.271Z,14.40
2022-11-10T10:35:13.658Z,14.60
2022-11-10T10:40:35.772Z,15.00
2022-11-10T10:46:07.230Z,15.40
2022-11-10T10:51:30.784Z,15.50
2022-11-10T10:57:05.592Z,14.70
2022-11-10T11:02:31.895Z,14.60
2022-11-10T11:07:55.931Z,14.70
2022-11-10T11:13:23.141Z,14.30
2022-11-10T11:18:46.077Z,14.40
2022-11-10T11:24:21.602Z,14.50
2022-11-10T11:29:54.667Z,15.20
2022-11-10T11:35:24.529Z,15.40
2022-11-10T11:40:49.618Z,15.10
2022-11-10T11:46:14.513Z,15.10
2022-11-10T11:51:40.648Z,14.90
2022-11-10T11:57:17.008Z,15.00
2022-11-10T12:03:11.729Z,15.00
2022-11-10T12:08:44.325Z,14.70
2022-11-10T12:14:13.721Z,14.70
2022-11-10T12:19:42.386Z,14.70
2022-11-10T12:25:16.288Z,15.50
2022-11-10T12:30:41.775Z,17.20
2022-11-10T12:36:07.396Z,17.90
2022-11-10T12:41:35.816Z,17.80
2022-11-10T12:47:01.154Z,16.50
2022-11-10T12:52:27.950Z,16.30
2022-11-10T12:57:51.117Z,16.20
2022-11-10T13:03:16.140Z,16.60
2022-11-10T13:08:45.445Z,16.20
2022-11-10T13:14:23.794Z,16.10
2022-11-10T13:19:50.799Z,15.60
2022-11-10T13:26:01.358Z,15.30
2022-11-10T13:31:51.868Z,15.50
2022-11-10T13:37:50.759Z,15.60
2022-11-10T13:43:24.166Z,15.60
2022-11-10T13:49:02.664Z,15.80
2022-11-10T13:54:55.065Z,15.80
2022-11-10T14:00:26.149Z,15.40
2022-11-10T14:06:09.094Z,14.90
2022-11-10T14:11:36.874Z,14.90
2022-11-10T14:16:59.571Z,14.70
2022-11-10T14:22:28.756Z,14.50
2022-11-10T14:27:55.115Z,14.40
2022-11-10T14:33:21.072Z,14.20
2022-11-10T14:38:45.092Z,14.10
2022-11-10T14:44:11.275Z,14.00
2022-11-10T14:49:33.020Z,13.90
2022-11-10T14:54:56.407Z,13.90
2022-11-10T15:00:21.898Z,13.90
2022-11-10T15:05:44.301Z,13.80
2022-11-10T15:11:27.918Z,13.50
2022-11-10T15:17:00.955Z,13.00
2022-11-10T15:22:30.784Z,12.60
2022-11-10T15:28:01.932Z,12.20
2022-11-10T15:33:27.512Z,11.70
2022-11-10T15:39:02.267Z,11.30
2022-11-10T15:44:30.454Z,11.00
2022-11-10T15:49:52.089Z,10.60
2022-11-10T15:55:19.809Z,10.40
2022-11-10T16:00:42.783Z,10.30
2022-11-10T16:06:04.509Z,10.30
2022-11-10T16:11:26.325Z,10.30
2022-11-10T16:16:49.219Z,10.10
2022-11-10T16:22:11.447Z,10.10
2022-11-10T16:27:35.209Z,10.00
2022-11-10T16:32:58.364Z,9.80
2022-11-10T16:38:22.817Z,9.60
2022-11-10T16:43:44.559Z,9.50
2022-11-10T16:49:21.674Z,9.70
2022-11-10T16:54:43.310Z,9.80
2022-11-10T17:00:05.676Z,9.80
2022-11-10T17:05:28.758Z,10.00
2022-11-10T17:10:51.395Z,10.00
2022-11-10T17:16:21.077Z,10.00
2022-11-10T17:21:44.807Z,10.00
2022-11-10T17:27:06.338Z,10.30
2022-11-10T17:32:50.001Z,10.60
2022-11-10T17:38:12.786Z,10.70
2022-11-10T17:43:34.283Z,11.20
2022-11-10T17:49:01.651Z,11.30
2022-11-10T17:54:25.868Z,11.40
2022-11-10T17:59:47.513Z,11.60
2022-11-10T18:05:11.158Z,11.70
2022-11-10T18:10:34.267Z,11.80
2022-11-10T18:15:58.364Z,12.00
2022-11-10T18:21:20.374Z,12.10
2022-11-10T18:26:43.470Z,12.10
2022-11-10T18:32:06.122Z,12.00
2022-11-10T18:37:27.977Z,12.20
2022-11-10T18:42:51.552Z,12.30
2022-11-10T18:48:13.105Z,12.30
2022-11-10T18:53:38.262Z,12.20
2022-11-10T18:59:01.802Z,12.20
2022-11-10T19:04:23.892Z,12.20
2022-11-10T19:09:45.580Z,12.50
2022-11-10T19:15:09.072Z,12.30
2022-11-10T19:20:34.299Z,12.40
2022-11-10T19:25:59.940Z,12.40
2022-11-10T19:31:27.239Z,12.40
2022-11-10T19:36:49.864Z,12.40
2022-11-10T19:42:12.036Z,12.40
2022-11-10T19:47:35.440Z,12.40
2022-11-10T19:52:58.662Z,12.40
2022-11-10T19:58:20.620Z,12.60
2022-11-10T20:03:44.619Z,12.60
2022-11-10T20:09:06.317Z,12.60
2022-11-10T20:14:30.572Z,12.50
2022-11-10T20:19:53.760Z,12.60
2022-11-10T20:25:15.814Z,12.60
2022-11-10T20:30:41.890Z,12.60
2022-11-10T20:36:07.068Z,12.40
2022-11-10T20:41:32.989Z,12.50
2022-11-10T20:46:55.625Z,12.50
2022-11-10T20:52:18.850Z,12.40
2022-11-10T20:57:41.332Z,12.30
2022-11-10T21:03:02.937Z,12.40
2022-11-10T21:08:26.497Z,12.30
2022-11-10T21:13:48.215Z,12.40
2022-11-10T21:19:10.036Z,12.30
2022-11-10T21:24:33.644Z,11.90
2022-11-10T21:29:55.928Z,11.80
2022-11-10T21:35:18.280Z,11.80
2022-11-10T21:40:41.730Z,11.60
2022-11-10T21:46:06.744Z,11.40
2022-11-10T21:51:28.421Z,11.30
2022-11-10T21:56:51.295Z,11.10
2022-11-10T22:02:14.677Z,10.80
2022-11-10T22:07:38.557Z,10.60
2022-11-10T22:13:20.941Z,10.40
2022-11-10T22:18:44.994Z,10.40
2022-11-10T22:24:26.683Z,10.40
2022-11-10T22:29:49.442Z,10.30
2022-11-10T22:35:31.469Z,10.30
2022-11-10T22:41:11.835Z,10.10
2022-11-10T22:46:37.199Z,9.90
2022-11-10T22:51:58.775Z,9.50
2022-11-10T22:57:21.003Z,9.30
2022-11-10T23:02:43.959Z,9.30
2022-11-10T23:08:06.327Z,9.00
2022-11-10T23:13:28.716Z,8.90
2022-11-10T23:18:53.510Z,9.10
2022-11-10T23:24:18.280Z,9.00
2022-11-10T23:29:40.305Z,8.70
2022-11-10T23:35:03.396Z,8.60
2022-11-10T23:40:25.282Z,8.50
2022-11-10T23:46:05.792Z,8.60
2022-11-10T23:51:29.861Z,8.50
2022-11-10T23:56:51.504Z,8.50
